Time;durP1;ratioP1;P1;durP2;ratioP2;P2;SDS_P1;SDS_P2;PMS_P1;PMS_P2;Temp;Humidity;BMP_temperature;BMP_pressure;BME280_temperature;BME280_humidity;BME280_pressure;Samples;Min_cycle;Max_cycle;Signal;HPM_P1;HPM_P2
2024/01/21 00:00:41;;;;;;;14.68;10.15;;;-2.40;1.00;;;;;;5097612;28;20243;-77
2024/01/21 00:03:10;;;;;;;13.05;11.52;;;-2.50;1.00;;;;;;5108111;28;20330;-80
2024/01/21 00:05:37;;;;;;;13.52;11.27;;;-2.40;1.00;;;;;;5107476;28;20239;-79
2024/01/21 00:08:07;;;;;;;16.25;11.18;;;-2.50;1.00;;;;;;5108458;28;20335;-72
2024/01/21 00:10:37;;;;;;;13.82;10.50;;;-2.50;1.00;;;;;;5111491;28;20819;-77
2024/01/21 00:13:04;;;;;;;14.82;10.98;;;-2.50;1.00;;;;;;5111331;28;20224;-73
2024/01/21 00:15:33;;;;;;;12.50;10.00;;;-2.50;1.00;;;;;;5109518;27;20255;-72
2024/01/21 00:18:00;;;;;;;16.20;10.60;;;-2.50;1.00;;;;;;5110419;28;20289;-75
2024/01/21 00:20:30;;;;;;;16.80;10.80;;;-2.50;1.00;;;;;;5113172;28;20227;-77
2024/01/21 00:22:57;;;;;;;14.15;9.93;;;-2.50;1.00;;;;;;5110032;28;20242;-76
2024/01/21 00:25:24;;;;;;;15.27;10.65;;;-2.50;1.00;;;;;;5108596;28;20299;-77
2024/01/21 00:27:52;;;;;;;14.80;10.20;;;-2.50;1.00;;;;;;5110812;28;20235;-76
2024/01/21 00:30:19;;;;;;;13.15;10.00;;;-2.60;1.00;;;;;;5109985;28;20251;-76
2024/01/21 00:32:46;;;;;;;13.57;10.07;;;-2.60;1.00;;;;;;5113717;27;20232;-76
2024/01/21 00:35:13;;;;;;;14.57;10.75;;;-2.60;1.00;;;;;;5107393;28;21041;-76
2024/01/21 00:37:40;;;;;;;14.07;10.60;;;-2.60;1.00;;;;;;5113199;28;20754;-76
2024/01/21 00:40:09;;;;;;;13.90;10.15;;;-2.60;1.00;;;;;;5107902;28;20266;-76
2024/01/21 00:42:36;;;;;;;11.50;9.90;;;-2.60;1.00;;;;;;5110352;28;20323;-77
2024/01/21 00:45:05;;;;;;;16.30;10.77;;;-2.60;1.00;;;;;;5109410;28;20735;-77
2024/01/21 00:47:32;;;;;;;15.82;10.27;;;-2.60;1.00;;;;;;5110533;28;20235;-76
2024/01/21 00:49:59;;;;;;;13.57;10.95;;;-2.70;1.00;;;;;;5111557;28;20277;-76
2024/01/21 00:52:28;;;;;;;12.50;11.20;;;-2.70;1.00;;;;;;5109507;28;20228;-80
2024/01/21 00:54:55;;;;;;;12.20;9.88;;;-2.80;1.00;;;;;;5109240;28;20235;-73
2024/01/21 00:57:23;;;;;;;13.10;10.57;;;-2.80;1.00;;;;;;5109045;28;21041;-77
2024/01/21 00:59:50;;;;;;;14.68;10.98;;;-2.80;1.00;;;;;;5107722;28;21113;-73
2024/01/21 01:02:18;;;;;;;10.63;9.50;;;-2.80;1.00;;;;;;5109787;28;20323;-72
2024/01/21 01:04:45;;;;;;;13.15;10.02;;;-2.90;1.00;;;;;;5108916;28;20323;-72
2024/01/21 01:07:13;;;;;;;11.25;9.38;;;-2.90;1.00;;;;;;5109079;28;20317;-72
2024/01/21 01:09:41;;;;;;;14.55;10.75;;;-2.90;1.00;;;;;;5102604;28;20240;-76
2024/01/21 01:12:08;;;;;;;11.20;9.70;;;-2.90;1.00;;;;;;5108717;27;20909;-71
2024/01/21 01:14:40;;;;;;;13.88;10.02;;;-2.90;1.00;;;;;;5112408;28;20239;-72
2024/01/21 01:17:20;;;;;;;11.43;9.23;;;-2.90;1.00;;;;;;5108983;28;20231;-74
2024/01/21 01:19:47;;;;;;;14.25;10.40;;;-2.90;1.00;;;;;;5109147;28;20348;-74
2024/01/21 01:22:14;;;;;;;13.23;10.30;;;-2.90;1.00;;;;;;5107375;27;20350;-72
2024/01/21 01:24:44;;;;;;;12.38;8.75;;;-2.90;1.00;;;;;;5102670;28;20338;-73
2024/01/21 01:27:11;;;;;;;14.20;9.68;;;-2.90;1.00;;;;;;5107966;28;20297;-74
2024/01/21 01:29:39;;;;;;;14.90;10.18;;;-2.90;1.00;;;;;;5110141;28;21141;-73
2024/01/21 01:32:06;;;;;;;13.10;8.60;;;-2.90;1.00;;;;;;5109795;28;20235;-71
2024/01/21 01:34:35;;;;;;;10.68;8.70;;;-2.90;1.00;;;;;;5108672;28;20389;-71
2024/01/21 01:37:04;;;;;;;10.45;9.20;;;-2.90;1.00;;;;;;5110440;28;20625;-73
2024/01/21 01:39:31;;;;;;;15.10;9.27;;;-2.90;1.00;;;;;;5111325;28;20242;-80
2024/01/21 01:41:59;;;;;;;13.90;9.77;;;-3.00;1.00;;;;;;5107998;28;20243;-78
2024/01/21 01:44:26;;;;;;;9.75;8.50;;;-2.90;1.00;;;;;;5110196;28;20997;-80
2024/01/21 01:46:53;;;;;;;13.73;10.40;;;-2.90;1.00;;;;;;5108015;27;20332;-78
2024/01/21 01:49:21;;;;;;;13.20;9.98;;;-2.90;1.00;;;;;;5110111;28;20266;-79
2024/01/21 01:51:50;;;;;;;10.48;8.25;;;-2.90;1.00;;;;;;5107258;28;20228;-79
2024/01/21 01:54:18;;;;;;;16.23;9.57;;;-2.90;1.00;;;;;;5112129;28;20243;-81
2024/01/21 01:56:45;;;;;;;17.13;10.77;;;-2.90;1.00;;;;;;5087034;28;20232;-79
2024/01/21 01:59:14;;;;;;;11.00;8.93;;;-2.90;1.00;;;;;;5106807;28;20242;-79
2024/01/21 02:01:41;;;;;;;12.73;10.35;;;-3.00;1.00;;;;;;5109149;28;20804;-78
2024/01/21 02:04:09;;;;;;;10.60;8.63;;;-3.00;1.00;;;;;;5110625;28;20295;-78
2024/01/21 02:06:36;;;;;;;12.60;8.13;;;-2.90;1.00;;;;;;5109680;27;20281;-77
2024/01/21 02:09:05;;;;;;;11.57;9.30;;;-3.00;1.00;;;;;;5111363;28;20235;-78
2024/01/21 02:11:33;;;;;;;10.23;8.38;;;-3.00;1.00;;;;;;5110460;28;20235;-76
2024/01/21 02:14:00;;;;;;;10.00;8.25;;;-3.00;1.00;;;;;;5106331;28;20242;-78
2024/01/21 02:16:28;;;;;;;10.77;9.18;;;-3.00;1.00;;;;;;5106600;28;20236;-78
2024/01/21 02:18:56;;;;;;;11.73;8.18;;;-3.00;1.00;;;;;;5110474;27;20603;-77
2024/01/21 02:21:23;;;;;;;9.50;7.78;;;-2.90;1.00;;;;;;5110035;28;20250;-77
2024/01/21 02:23:51;;;;;;;11.15;8.00;;;-2.90;1.00;;;;;;5106823;27;20239;-76
2024/01/21 02:26:18;;;;;;;12.05;9.50;;;-2.90;1.00;;;;;;5109088;28;20236;-76
2024/01/21 02:28:45;;;;;;;10.27;8.50;;;-3.00;1.00;;;;;;5089821;28;20239;-75
2024/01/21 02:31:12;;;;;;;10.30;8.10;;;-3.00;1.00;;;;;;5109065;28;20240;-76
2024/01/21 02:33:38;;;;;;;10.15;8.75;;;-3.00;1.00;;;;;;5103646;27;20288;-76
2024/01/21 02:36:06;;;;;;;12.18;8.05;;;-3.10;1.00;;;;;;5106123;28;20263;-76
2024/01/21 02:38:33;;;;;;;9.90;7.95;;;-3.00;1.00;;;;;;5109103;28;21014;-77
2024/01/21 02:41:01;;;;;;;11.13;8.43;;;-3.10;1.00;;;;;;5107310;28;20239;-77
2024/01/21 02:43:28;;;;;;;12.73;9.10;;;-3.10;1.00;;;;;;5109449;28;20304;-76
2024/01/21 02:45:55;;;;;;;11.55;8.18;;;-3.10;1.00;;;;;;5110652;28;20315;-77
2024/01/21 02:48:22;;;;;;;9.82;7.65;;;-3.10;1.00;;;;;;5108785;28;20844;-76
2024/01/21 02:50:49;;;;;;;10.52;8.82;;;-3.20;1.00;;;;;;5106218;28;20236;-76
2024/01/21 02:53:16;;;;;;;11.50;8.77;;;-3.10;1.00;;;;;;5099145;28;20274;-76
2024/01/21 02:55:43;;;;;;;10.23;8.40;;;-3.20;1.00;;;;;;5109290;28;20247;-77
2024/01/21 02:58:11;;;;;;;9.55;7.90;;;-3.20;1.00;;;;;;5107196;28;20239;-76
2024/01/21 03:00:38;;;;;;;11.90;8.40;;;-3.20;1.00;;;;;;5110897;28;20289;-77
2024/01/21 03:03:05;;;;;;;11.88;8.93;;;-3.30;1.00;;;;;;5106905;28;20235;-75
2024/01/21 03:05:32;;;;;;;11.15;8.27;;;-3.30;1.00;;;;;;5109681;28;20248;-76
2024/01/21 03:07:59;;;;;;;10.63;8.10;;;-3.40;1.00;;;;;;5110862;28;20239;-78
2024/01/21 03:10:26;;;;;;;10.98;8.93;;;-3.30;1.00;;;;;;5108450;28;20217;-77
2024/01/21 03:12:53;;;;;;;11.48;7.72;;;-3.40;1.00;;;;;;5109448;28;20341;-77
2024/01/21 03:15:21;;;;;;;9.45;8.20;;;-3.40;1.00;;;;;;5106815;28;20819;-77
2024/01/21 03:17:48;;;;;;;10.70;8.60;;;-3.40;1.00;;;;;;5113499;28;20633;-76
2024/01/21 03:20:15;;;;;;;9.65;8.65;;;-3.40;1.00;;;;;;5108321;28;20322;-77
2024/01/21 03:22:42;;;;;;;11.05;8.25;;;-3.50;1.00;;;;;;5109041;28;20313;-78
2024/01/21 03:25:09;;;;;;;10.88;8.43;;;-3.50;1.00;;;;;;5107917;28;20247;-76
2024/01/21 03:27:36;;;;;;;12.23;8.00;;;-3.60;1.00;;;;;;5111819;28;20234;-76
2024/01/21 03:30:03;;;;;;;9.48;8.05;;;-3.60;1.00;;;;;;5111162;28;20703;-75
2024/01/21 03:32:31;;;;;;;10.98;8.20;;;-3.60;1.00;;;;;;5109104;28;20239;-76
2024/01/21 03:34:58;;;;;;;10.70;8.50;;;-3.60;1.00;;;;;;5107620;27;20235;-76
2024/01/21 03:37:25;;;;;;;10.48;8.30;;;-3.60;1.00;;;;;;5106109;28;20243;-72
2024/01/21 03:39:52;;;;;;;9.25;7.50;;;-3.60;1.00;;;;;;5106497;28;20259;-75
2024/01/21 03:42:20;;;;;;;9.45;8.43;;;-3.60;1.00;;;;;;5106057;28;21025;-74
2024/01/21 03:44:49;;;;;;;10.35;9.15;;;-3.50;1.00;;;;;;5104922;27;20239;-72
2024/01/21 03:47:16;;;;;;;10.00;8.20;;;-3.50;1.00;;;;;;5110159;27;20234;-72
2024/01/21 03:49:44;;;;;;;10.45;7.40;;;-3.50;1.00;;;;;;5110584;28;20342;-73
2024/01/21 03:52:12;;;;;;;10.00;6.82;;;-3.40;1.00;;;;;;5109584;28;20716;-72
2024/01/21 03:54:39;;;;;;;9.07;7.65;;;-3.40;1.00;;;;;;5112808;28;20235;-73
2024/01/21 03:57:05;;;;;;;11.13;8.55;;;-3.40;1.00;;;;;;5113393;28;20457;-74
2024/01/21 03:59:33;;;;;;;9.60;8.07;;;-3.40;1.00;;;;;;5108646;28;20230;-73
2024/01/21 04:02:00;;;;;;;11.32;8.02;;;-3.30;1.00;;;;;;5110560;28;20267;-71
2024/01/21 04:04:29;;;;;;;10.68;7.90;;;-3.30;1.00;;;;;;5111843;28;20334;-73
2024/01/21 04:06:57;;;;;;;8.85;6.78;;;-3.30;1.00;;;;;;5102956;28;20235;-73
2024/01/21 04:09:24;;;;;;;9.40;6.43;;;-3.30;1.00;;;;;;5110572;28;20228;-73
2024/01/21 04:11:51;;;;;;;10.70;8.48;;;-3.30;1.00;;;;;;5110954;28;20336;-72
2024/01/21 04:14:19;;;;;;;11.05;8.45;;;-3.30;1.00;;;;;;5109423;28;20711;-72
2024/01/21 04:16:46;;;;;;;10.10;8.40;;;-3.30;1.00;;;;;;5107773;28;20239;-71
2024/01/21 04:19:13;;;;;;;8.80;7.47;;;-3.30;1.00;;;;;;5111131;28;20306;-74
2024/01/21 04:21:40;;;;;;;9.95;8.88;;;-3.20;1.00;;;;;;5093340;28;20263;-73
2024/01/21 04:24:09;;;;;;;13.77;7.88;;;-3.20;1.00;;;;;;5095454;28;20326;-73
2024/01/21 04:26:36;;;;;;;12.18;8.93;;;-3.20;1.00;;;;;;5111254;28;20235;-72
2024/01/21 04:29:03;;;;;;;9.27;7.90;;;-3.20;1.00;;;;;;5109186;28;20325;-72
2024/01/21 04:31:30;;;;;;;10.55;7.97;;;-3.30;1.00;;;;;;5106554;28;20239;-72
2024/01/21 04:33:57;;;;;;;10.27;8.40;;;-3.20;1.00;;;;;;5109183;28;20231;-75
2024/01/21 04:36:23;;;;;;;10.25;7.70;;;-3.20;1.00;;;;;;5112380;27;20266;-73
2024/01/21 04:38:50;;;;;;;8.63;7.22;;;-3.20;1.00;;;;;;5110994;28;21037;-72
2024/01/21 04:41:19;;;;;;;9.70;7.65;;;-3.20;1.00;;;;;;5108244;28;20865;-71
2024/01/21 04:43:46;;;;;;;7.57;6.78;;;-3.20;1.00;;;;;;5109710;28;20231;-75
2024/01/21 04:46:13;;;;;;;10.85;7.72;;;-3.10;1.00;;;;;;5080640;28;20243;-77
2024/01/21 04:48:40;;;;;;;11.95;7.80;;;-3.10;1.00;;;;;;5107875;28;20239;-75
2024/01/21 04:51:07;;;;;;;8.80;7.07;;;-3.10;1.00;;;;;;5111828;27;20321;-75
2024/01/21 04:53:35;;;;;;;12.57;8.35;;;-3.00;1.00;;;;;;5109234;28;20232;-75
2024/01/21 04:56:01;;;;;;;8.32;6.88;;;-3.00;1.00;;;;;;5087558;28;20243;-76
2024/01/21 04:58:30;;;;;;;7.50;6.63;;;-2.90;1.00;;;;;;5102077;27;20637;-76
2024/01/21 05:00:57;;;;;;;10.30;7.55;;;-2.80;1.00;;;;;;5108246;28;20247;-77
2024/01/21 05:03:24;;;;;;;12.10;8.50;;;-2.80;1.00;;;;;;5106260;28;20241;-75
2024/01/21 05:05:51;;;;;;;9.25;7.43;;;-2.80;1.00;;;;;;5106194;27;20247;-72
2024/01/21 05:08:18;;;;;;;10.70;7.95;;;-2.70;1.00;;;;;;5106388;27;20232;-72
2024/01/21 05:10:44;;;;;;;10.95;7.78;;;-2.60;1.00;;;;;;5107021;28;20263;-74
2024/01/21 05:13:11;;;;;;;11.05;8.27;;;-2.60;1.00;;;;;;5107157;27;20825;-72
2024/01/21 05:15:40;;;;;;;11.18;7.63;;;-2.70;1.00;;;;;;5109492;27;20238;-73
2024/01/21 05:18:07;;;;;;;8.73;7.43;;;-2.60;1.00;;;;;;5108181;27;20330;-73
2024/01/21 05:20:35;;;;;;;10.75;7.75;;;-2.60;1.00;;;;;;5106425;27;20762;-73
2024/01/21 05:23:03;;;;;;;9.43;7.30;;;-2.50;1.00;;;;;;5105585;27;20429;-72
2024/01/21 05:25:30;;;;;;;10.15;7.53;;;-2.50;1.00;;;;;;5106728;27;20242;-73
2024/01/21 05:27:57;;;;;;;11.13;7.70;;;-2.50;1.00;;;;;;5105471;27;20291;-75
2024/01/21 05:30:24;;;;;;;10.90;7.75;;;-2.60;1.00;;;;;;5109619;27;20243;-76
2024/01/21 05:32:53;;;;;;;10.63;7.32;;;-2.50;1.00;;;;;;5107940;27;20335;-72
2024/01/21 05:35:22;;;;;;;8.52;7.30;;;-2.50;1.00;;;;;;5108384;27;20786;-71
2024/01/21 05:37:49;;;;;;;7.53;6.25;;;-2.50;1.00;;;;;;5109001;27;20245;-72
2024/01/21 05:40:16;;;;;;;7.72;6.90;;;-2.50;1.00;;;;;;5108111;27;21177;-72
2024/01/21 05:42:44;;;;;;;10.38;7.30;;;-2.50;1.00;;;;;;5107364;27;20265;-72
2024/01/21 05:45:11;;;;;;;7.65;6.80;;;-2.50;1.00;;;;;;5102546;28;20699;-73
2024/01/21 05:47:39;;;;;;;10.63;7.22;;;-2.40;1.00;;;;;;5109102;28;20691;-73
2024/01/21 05:50:09;;;;;;;8.20;6.80;;;-2.40;1.00;;;;;;5105151;28;20235;-72
2024/01/21 05:52:36;;;;;;;9.27;6.47;;;-2.50;1.00;;;;;;5109125;28;20314;-77
2024/01/21 05:55:04;;;;;;;10.05;7.35;;;-2.40;1.00;;;;;;5110074;28;20227;-72
2024/01/21 05:57:31;;;;;;;8.77;7.07;;;-2.40;1.00;;;;;;5107436;28;20247;-72
2024/01/21 05:59:58;;;;;;;8.05;6.85;;;-2.40;1.00;;;;;;5108227;27;21064;-72
2024/01/21 06:02:25;;;;;;;9.65;7.32;;;-2.40;1.00;;;;;;5109344;28;20235;-73
2024/01/21 06:04:54;;;;;;;8.32;7.38;;;-2.40;1.00;;;;;;5110177;28;20694;-71
2024/01/21 06:07:24;;;;;;;9.02;7.20;;;-2.50;1.00;;;;;;5104056;28;20251;-71
2024/01/21 06:09:50;;;;;;;9.07;6.45;;;-2.50;1.00;;;;;;5109576;28;20281;-73
2024/01/21 06:12:17;;;;;;;10.13;7.15;;;-2.50;1.00;;;;;;5109955;28;20329;-72
2024/01/21 06:14:46;;;;;;;8.32;6.93;;;-2.50;1.00;;;;;;5106970;28;20326;-72
2024/01/21 06:17:13;;;;;;;8.73;6.60;;;-2.60;1.00;;;;;;5108448;28;20231;-72
2024/01/21 06:19:41;;;;;;;10.18;7.57;;;-2.50;1.00;;;;;;5102474;28;20243;-75
2024/01/21 06:22:07;;;;;;;9.63;7.97;;;-2.40;1.00;;;;;;5106279;28;20239;-73
2024/01/21 06:24:37;;;;;;;10.30;6.80;;;-2.40;1.00;;;;;;5107260;28;20231;-73
2024/01/21 06:27:04;;;;;;;9.88;6.70;;;-2.40;1.00;;;;;;5107737;28;20401;-76
2024/01/21 06:29:33;;;;;;;10.68;7.10;;;-2.30;1.00;;;;;;5110541;28;20329;-72
2024/01/21 06:32:00;;;;;;;11.48;7.45;;;-2.40;1.00;;;;;;5107974;28;20242;-72
2024/01/21 06:34:28;;;;;;;7.97;6.60;;;-2.30;1.00;;;;;;5107608;28;20244;-73
2024/01/21 06:36:54;;;;;;;8.90;6.78;;;-2.30;1.00;;;;;;5109118;28;20726;-72
2024/01/21 06:39:21;;;;;;;11.38;7.45;;;-2.40;1.00;;;;;;5109199;28;20733;-72
2024/01/21 06:41:50;;;;;;;9.02;7.90;;;-2.30;1.00;;;;;;5110909;27;20285;-73
2024/01/21 06:44:16;;;;;;;9.82;7.78;;;-2.30;1.00;;;;;;5105641;28;20252;-72
2024/01/21 06:46:43;;;;;;;9.85;6.90;;;-2.30;1.00;;;;;;5110563;27;20278;-71
2024/01/21 06:49:10;;;;;;;9.38;6.78;;;-2.20;1.00;;;;;;5106910;28;20810;-74
2024/01/21 06:51:43;;;;;;;10.35;7.10;;;-2.30;1.00;;;;;;5105832;28;20246;-73
2024/01/21 06:54:11;;;;;;;9.65;6.57;;;-2.30;1.00;;;;;;5104464;28;20358;-73
2024/01/21 06:56:38;;;;;;;9.75;7.03;;;-2.20;1.00;;;;;;5107787;28;21130;-74
2024/01/21 06:59:07;;;;;;;12.20;10.80;;;-2.30;1.00;;;;;;5107823;28;20243;-72
2024/01/21 07:01:34;;;;;;;9.45;7.18;;;-2.20;1.00;;;;;;5104850;28;20246;-72
2024/01/21 07:04:01;;;;;;;9.90;6.70;;;-2.20;1.00;;;;;;5105093;28;20243;-71
2024/01/21 07:06:28;;;;;;;7.90;6.80;;;-2.20;1.00;;;;;;5104493;27;20259;-75
2024/01/21 07:08:55;;;;;;;10.23;7.80;;;-2.20;1.00;;;;;;5106718;27;20250;-73
2024/01/21 07:11:25;;;;;;;8.38;7.00;;;-2.20;1.00;;;;;;5104103;27;20293;-72
2024/01/21 07:13:52;;;;;;;8.60;7.25;;;-2.20;1.00;;;;;;5093562;27;20231;-72
2024/01/21 07:16:20;;;;;;;8.63;7.40;;;-2.30;1.00;;;;;;5101214;27;20231;-75
2024/01/21 07:18:47;;;;;;;7.53;6.65;;;-2.20;1.00;;;;;;5105974;27;20365;-74
2024/01/21 07:21:14;;;;;;;8.52;7.05;;;-2.20;1.00;;;;;;5105040;27;20752;-72
2024/01/21 07:23:45;;;;;;;9.32;7.43;;;-2.10;1.00;;;;;;5104524;27;21128;-76
2024/01/21 07:26:12;;;;;;;9.30;7.55;;;-2.10;1.00;;;;;;5097851;27;20231;-73
2024/01/21 07:28:39;;;;;;;11.98;7.65;;;-1.90;1.00;;;;;;5107599;27;20309;-78
2024/01/21 07:31:10;;;;;;;12.55;8.70;;;-1.90;1.00;;;;;;5106084;28;20235;-73
2024/01/21 07:33:38;;;;;;;9.10;7.25;;;-1.80;1.00;;;;;;5103039;27;20716;-74
2024/01/21 07:36:06;;;;;;;9.00;7.50;;;-1.70;1.00;;;;;;5099878;28;20809;-76
2024/01/21 07:38:33;;;;;;;10.00;8.10;;;-1.70;1.00;;;;;;5103221;28;20235;-72
2024/01/21 07:41:00;;;;;;;7.80;6.70;;;-1.70;1.00;;;;;;5103020;28;20326;-74
2024/01/21 07:43:28;;;;;;;9.15;8.18;;;-1.70;1.00;;;;;;5104175;27;20245;-74
2024/01/21 07:45:55;;;;;;;10.23;7.40;;;-1.60;1.00;;;;;;5102909;28;20990;-75
2024/01/21 07:48:23;;;;;;;9.07;6.80;;;-1.70;1.00;;;;;;5102265;28;20299;-73
2024/01/21 07:50:52;;;;;;;11.98;7.18;;;-1.60;1.00;;;;;;5102997;28;21076;-74
2024/01/21 07:53:19;;;;;;;8.20;7.10;;;-1.60;1.00;;;;;;5102807;28;20235;-75
2024/01/21 07:55:47;;;;;;;8.75;7.03;;;-1.60;1.00;;;;;;5104664;27;20235;-72
2024/01/21 07:58:15;;;;;;;8.52;6.80;;;-1.50;1.00;;;;;;5105517;27;20410;-80
2024/01/21 08:00:43;;;;;;;8.10;7.00;;;-1.50;1.00;;;;;;5099281;28;20333;-75
2024/01/21 08:03:11;;;;;;;10.63;7.07;;;-1.40;1.00;;;;;;5101917;28;21052;-76
2024/01/21 08:05:38;;;;;;;8.63;6.53;;;-1.30;1.00;;;;;;5102026;27;20271;-74
2024/01/21 08:08:07;;;;;;;7.72;6.78;;;-1.30;1.00;;;;;;5101968;28;20335;-75
2024/01/21 08:10:34;;;;;;;8.77;6.90;;;-1.20;1.00;;;;;;5102975;27;20231;-75
2024/01/21 08:13:01;;;;;;;7.82;6.20;;;-1.10;1.00;;;;;;5103197;28;20702;-74
2024/01/21 08:15:28;;;;;;;8.15;6.60;;;-1.00;1.00;;;;;;5089185;27;20353;-74
2024/01/21 08:17:55;;;;;;;7.88;6.50;;;-0.80;1.00;;;;;;5105260;27;20239;-74
2024/01/21 08:20:22;;;;;;;7.75;6.55;;;-0.80;1.00;;;;;;5103797;28;20243;-75
2024/01/21 08:22:49;;;;;;;7.55;5.68;;;-0.70;1.00;;;;;;5104096;28;20236;-75
2024/01/21 08:25:18;;;;;;;7.22;6.53;;;-0.60;1.00;;;;;;5104690;27;20258;-74
2024/01/21 08:27:45;;;;;;;6.32;5.47;;;-0.50;1.00;;;;;;5106772;28;20361;-74
2024/01/21 08:30:13;;;;;;;8.73;5.50;;;-0.50;1.00;;;;;;5102738;28;20236;-74
2024/01/21 08:32:40;;;;;;;7.03;5.22;;;-0.50;1.00;;;;;;5100794;27;20263;-75
2024/01/21 08:35:08;;;;;;;6.10;5.50;;;-0.50;1.00;;;;;;5107245;27;20301;-75
2024/01/21 08:37:35;;;;;;;8.18;6.53;;;-0.40;1.00;;;;;;5107162;27;20267;-75
2024/01/21 08:40:04;;;;;;;5.50;5.00;;;-0.30;1.00;;;;;;5106114;27;20349;-77
2024/01/21 08:42:32;;;;;;;7.40;5.30;;;-0.20;1.00;;;;;;5109461;27;20240;-77
2024/01/21 08:45:00;;;;;;;6.07;4.82;;;-0.20;1.00;;;;;;5105310;27;20282;-77
2024/01/21 08:47:27;;;;;;;7.15;4.85;;;-0.10;1.00;;;;;;5106497;27;20231;-74
2024/01/21 08:49:54;;;;;;;7.60;6.03;;;-0.10;1.00;;;;;;5107109;27;20279;-77
2024/01/21 08:52:21;;;;;;;5.45;4.95;;;-0.20;1.00;;;;;;5107930;27;20316;-73
2024/01/21 08:54:48;;;;;;;5.90;5.32;;;-0.10;1.00;;;;;;5106690;27;20287;-74
2024/01/21 08:57:16;;;;;;;5.65;5.15;;;0.00;1.00;;;;;;5099859;28;21936;-74
2024/01/21 08:59:44;;;;;;;8.27;4.68;;;0.10;1.00;;;;;;5107181;27;20340;-75
2024/01/21 09:02:11;;;;;;;6.65;5.22;;;0.20;1.00;;;;;;5102949;27;20316;-77
2024/01/21 09:04:40;;;;;;;9.63;6.05;;;0.20;1.00;;;;;;5108784;28;20254;-75
2024/01/21 09:07:08;;;;;;;6.35;4.85;;;0.30;1.00;;;;;;5107303;27;20262;-76
2024/01/21 09:09:35;;;;;;;5.53;5.03;;;0.60;1.00;;;;;;5107971;28;20355;-75
2024/01/21 09:12:03;;;;;;;6.07;5.45;;;0.80;1.00;;;;;;5107318;27;20231;-75
2024/01/21 09:14:30;;;;;;;5.50;4.95;;;0.80;1.00;;;;;;5105641;27;20265;-77
2024/01/21 09:16:58;;;;;;;5.05;4.10;;;0.70;1.00;;;;;;5106582;27;20322;-78
2024/01/21 09:19:26;;;;;;;5.68;5.00;;;0.60;1.00;;;;;;5106082;27;20318;-78
2024/01/21 09:21:53;;;;;;;6.15;5.10;;;0.60;1.00;;;;;;5105911;27;21217;-75
2024/01/21 09:24:21;;;;;;;5.60;4.65;;;0.70;1.00;;;;;;5109405;28;20239;-75
2024/01/21 09:26:48;;;;;;;6.22;5.43;;;0.80;1.00;;;;;;5106645;27;20702;-78
2024/01/21 09:29:15;;;;;;;5.75;4.95;;;0.80;1.00;;;;;;5107283;27;20300;-76
2024/01/21 09:31:42;;;;;;;5.10;3.75;;;1.00;1.00;;;;;;5107236;27;21547;-77
2024/01/21 09:34:11;;;;;;;4.43;3.95;;;0.90;1.00;;;;;;5105712;27;20342;-77
2024/01/21 09:36:38;;;;;;;5.28;4.78;;;0.80;1.00;;;;;;5104818;27;20360;-76
2024/01/21 09:39:05;;;;;;;7.30;4.93;;;0.80;1.00;;;;;;5108989;27;20247;-75
2024/01/21 09:41:39;;;;;;;5.47;4.72;;;0.90;1.00;;;;;;5102164;27;20347;-78
2024/01/21 09:44:07;;;;;;;5.90;4.93;;;1.00;1.00;;;;;;5104737;28;20245;-74
2024/01/21 09:46:34;;;;;;;8.57;4.43;;;1.00;1.00;;;;;;5105046;28;20326;-73
2024/01/21 09:49:03;;;;;;;6.38;4.20;;;1.00;1.00;;;;;;5106220;28;20235;-76
2024/01/21 09:51:31;;;;;;;5.10;4.25;;;1.10;1.00;;;;;;5109089;28;20239;-74
2024/01/21 09:54:04;;;;;;;7.65;4.35;;;1.10;1.00;;;;;;5105036;28;20231;-75
2024/01/21 09:56:31;;;;;;;8.10;3.97;;;1.10;1.00;;;;;;5106239;28;20247;-73
2024/01/21 09:59:01;;;;;;;6.32;4.30;;;1.10;1.00;;;;;;5106372;27;20776;-75
2024/01/21 10:01:28;;;;;;;12.82;4.72;;;1.20;1.00;;;;;;5105572;28;20235;-75
2024/01/21 10:03:55;;;;;;;4.97;3.85;;;1.40;1.00;;;;;;5102135;27;20340;-77
2024/01/21 10:06:22;;;;;;;7.07;4.13;;;1.30;1.00;;;;;;5107270;28;20707;-75
2024/01/21 10:08:52;;;;;;;8.13;4.25;;;1.30;1.00;;;;;;5104045;28;21153;-75
2024/01/21 10:11:20;;;;;;;5.82;4.20;;;1.30;1.00;;;;;;5107084;28;20309;-75
2024/01/21 10:13:47;;;;;;;6.40;4.65;;;1.30;1.00;;;;;;5107051;28;20350;-75
2024/01/21 10:16:14;;;;;;;6.05;4.30;;;1.20;1.00;;;;;;5104539;28;20289;-75
2024/01/21 10:18:47;;;;;;;4.22;3.83;;;1.30;1.00;;;;;;5106714;27;20394;-76
2024/01/21 10:21:19;;;;;;;4.90;3.83;;;1.40;1.00;;;;;;5105079;27;20310;-75
2024/01/21 10:23:47;;;;;;;3.80;3.40;;;1.40;1.00;;;;;;5099999;27;20640;-76
2024/01/21 10:26:16;;;;;;;3.97;3.30;;;1.30;1.00;;;;;;5106550;28;20237;-74
2024/01/21 10:28:43;;;;;;;5.07;3.50;;;1.40;1.00;;;;;;5106748;28;20323;-75
2024/01/21 10:31:10;;;;;;;5.72;3.70;;;1.30;1.00;;;;;;5103230;28;20247;-75
2024/01/21 10:33:37;;;;;;;5.35;4.35;;;1.40;1.00;;;;;;5104027;27;20739;-74
2024/01/21 10:36:04;;;;;;;5.53;3.70;;;1.60;1.00;;;;;;5099872;28;20243;-74
2024/01/21 10:38:45;;;;;;;4.43;4.03;;;1.70;1.00;;;;;;5105085;27;21041;-78
2024/01/21 10:41:18;;;;;;;5.20;3.70;;;1.70;1.00;;;;;;5103936;27;20253;-76
2024/01/21 10:43:45;;;;;;;7.65;3.50;;;1.70;1.00;;;;;;5104192;28;20308;-74
2024/01/21 10:46:14;;;;;;;5.95;4.00;;;1.80;1.00;;;;;;5104922;28;20808;-73
2024/01/21 10:48:43;;;;;;;7.78;3.72;;;1.90;1.00;;;;;;5099322;28;20353;-77
2024/01/21 10:51:10;;;;;;;4.97;4.05;;;1.90;1.00;;;;;;5102354;28;20248;-77
2024/01/21 10:53:42;;;;;;;13.18;4.80;;;1.80;1.00;;;;;;5104426;27;20235;-74
2024/01/21 10:56:11;;;;;;;4.10;3.70;;;1.80;1.00;;;;;;5103977;28;20235;-73
2024/01/21 10:58:43;;;;;;;4.53;3.60;;;1.80;1.00;;;;;;5103131;28;20267;-73
2024/01/21 11:01:11;;;;;;;4.28;3.20;;;1.90;1.00;;;;;;5103478;28;20738;-72
2024/01/21 11:03:39;;;;;;;5.47;3.30;;;2.10;1.00;;;;;;5106644;28;20282;-75
2024/01/21 11:06:10;;;;;;;5.20;3.35;;;2.10;1.00;;;;;;5105404;27;20245;-72
2024/01/21 11:08:41;;;;;;;5.20;3.45;;;2.20;1.00;;;;;;5108554;28;20271;-72
2024/01/21 11:11:15;;;;;;;5.70;3.42;;;2.20;1.00;;;;;;5107590;28;20275;-75
2024/01/21 11:13:46;;;;;;;3.55;2.95;;;2.20;1.00;;;;;;5106055;28;20729;-72
2024/01/21 11:16:14;;;;;;;4.47;3.38;;;2.30;1.00;;;;;;5106177;27;20834;-73
2024/01/21 11:18:45;;;;;;;5.15;2.92;;;2.40;1.00;;;;;;5104319;28;20256;-74
2024/01/21 11:21:14;;;;;;;3.83;3.10;;;2.60;1.00;;;;;;5094088;28;20231;-74
2024/01/21 11:23:43;;;;;;;5.75;3.75;;;2.60;1.00;;;;;;5105256;28;20326;-72
2024/01/21 11:26:20;;;;;;;3.40;3.05;;;2.70;1.00;;;;;;5105068;28;20320;-75
2024/01/21 11:28:50;;;;;;;5.30;3.00;;;2.70;1.00;;;;;;5104560;28;20246;-73
2024/01/21 11:31:21;;;;;;;6.05;3.80;;;2.70;1.00;;;;;;5105745;28;20235;-73
2024/01/21 11:34:03;;;;;;;6.65;3.70;;;2.90;1.00;;;;;;5102657;27;20361;-73
2024/01/21 11:36:32;;;;;;;3.47;3.15;;;3.40;1.00;;;;;;5101854;27;20354;-74
2024/01/21 11:39:00;;;;;;;3.78;3.20;;;3.60;1.00;;;;;;5107413;27;20243;-72
2024/01/21 11:41:40;;;;;;;3.85;3.45;;;3.70;1.00;;;;;;5106944;27;20370;-74
2024/01/21 11:44:13;;;;;;;4.20;3.70;;;4.20;1.00;;;;;;5107514;27;20235;-78
2024/01/21 11:46:41;;;;;;;3.58;3.20;;;4.60;1.00;;;;;;5109898;27;20235;-78
2024/01/21 11:49:09;;;;;;;5.10;3.65;;;4.80;1.00;;;;;;5107772;28;20258;-78
2024/01/21 11:51:37;;;;;;;5.20;3.45;;;4.70;1.00;;;;;;5108963;27;20253;-79
2024/01/21 11:54:04;;;;;;;4.53;3.45;;;4.50;1.00;;;;;;5107214;27;20232;-79
2024/01/21 11:56:31;;;;;;;4.90;3.60;;;4.50;1.00;;;;;;5109196;27;20239;-78
2024/01/21 11:58:59;;;;;;;4.90;4.03;;;4.30;1.00;;;;;;5103528;27;20316;-79
2024/01/21 12:01:30;;;;;;;3.53;3.13;;;4.60;1.00;;;;;;5103732;27;20339;-78
2024/01/21 12:03:59;;;;;;;3.92;3.38;;;4.70;1.00;;;;;;5104548;27;20446;-77
2024/01/21 12:06:27;;;;;;;5.82;4.40;;;4.80;1.00;;;;;;5106375;28;20330;-79
2024/01/21 12:08:54;;;;;;;5.72;3.55;;;4.90;1.00;;;;;;5108404;27;20375;-78
2024/01/21 12:11:21;;;;;;;4.40;3.80;;;5.40;1.00;;;;;;5112382;28;20700;-79
2024/01/21 12:13:51;;;;;;;5.55;4.10;;;6.00;1.00;;;;;;5109693;27;20248;-77
2024/01/21 12:16:18;;;;;;;5.82;4.75;;;6.20;1.00;;;;;;5112194;27;20417;-78
2024/01/21 12:18:48;;;;;;;4.70;3.83;;;6.10;1.00;;;;;;5106688;28;20235;-77
2024/01/21 12:21:15;;;;;;;9.35;4.18;;;6.00;1.00;;;;;;5112719;28;20255;-79
2024/01/21 12:23:44;;;;;;;4.70;3.80;;;5.80;1.00;;;;;;5110337;27;20244;-75
2024/01/21 12:26:16;;;;;;;6.10;3.95;;;5.90;1.00;;;;;;5110308;28;20385;-80
2024/01/21 12:28:56;;;;;;;4.70;3.60;;;6.10;1.00;;;;;;5111777;27;20240;-80
2024/01/21 12:31:26;;;;;;;5.60;4.40;;;5.70;1.00;;;;;;5112720;27;20235;-78
2024/01/21 12:33:56;;;;;;;5.13;4.10;;;5.20;1.00;;;;;;5111523;27;20293;-79
2024/01/21 12:36:23;;;;;;;6.32;4.30;;;5.00;1.00;;;;;;5109297;27;20257;-78
2024/01/21 12:38:50;;;;;;;4.70;3.00;;;4.60;1.00;;;;;;5111432;28;20308;-79
2024/01/21 12:41:18;;;;;;;6.10;3.45;;;4.30;1.00;;;;;;5114558;27;20230;-77
2024/01/21 12:43:47;;;;;;;9.65;3.90;;;4.10;1.00;;;;;;5112443;28;20326;-78
2024/01/21 12:46:14;;;;;;;6.43;3.42;;;3.90;1.00;;;;;;5107085;28;20284;-78
2024/01/21 12:48:41;;;;;;;4.95;3.90;;;3.70;1.00;;;;;;5109638;28;20239;-80
2024/01/21 12:51:10;;;;;;;5.50;3.80;;;3.50;1.00;;;;;;5106101;27;20231;-77
2024/01/21 12:53:37;;;;;;;4.18;3.78;;;3.50;1.00;;;;;;5112872;28;20223;-80
2024/01/21 12:56:05;;;;;;;4.28;3.42;;;3.50;1.00;;;;;;5112679;28;20256;-79
2024/01/21 12:58:32;;;;;;;3.58;3.28;;;3.40;1.00;;;;;;5114601;28;20267;-78